sensor_id;sensor_type;location;lat;lon;timestamp;P1;durP1;ratioP1;P2;durP2;ratioP2
11854;SDS011;5987;53.140;8.904;2023-04-29T00:00:42;109.90;;;55.37;;
11854;SDS011;5987;53.140;8.904;2023-04-29T00:03:45;103.97;;;52.53;;
11854;SDS011;5987;53.140;8.904;2023-04-29T00:06:50;100.17;;;51.83;;
11854;SDS011;5987;53.140;8.904;2023-04-29T00:09:55;102.23;;;52.50;;
11854;SDS011;5987;53.140;8.904;2023-04-29T00:12:59;98.20;;;51.50;;
11854;SDS011;5987;53.140;8.904;2023-04-29T00:16:03;90.60;;;50.30;;
11854;SDS011;5987;53.140;8.904;2023-04-29T00:19:07;94.37;;;51.63;;
11854;SDS011;5987;53.140;8.904;2023-04-29T00:22:11;103.00;;;48.20;;
11854;SDS011;5987;53.140;8.904;2023-04-29T00:25:17;89.83;;;48.37;;
11854;SDS011;5987;53.140;8.904;2023-04-29T00:28:21;93.07;;;47.43;;
11854;SDS011;5987;53.140;8.904;2023-04-29T00:31:24;86.07;;;44.83;;
11854;SDS011;5987;53.140;8.904;2023-04-29T00:34:28;90.10;;;46.30;;
11854;SDS011;5987;53.140;8.904;2023-04-29T00:37:32;82.53;;;43.23;;
11854;SDS011;5987;53.140;8.904;2023-04-29T00:40:38;80.80;;;44.27;;
11854;SDS011;5987;53.140;8.904;2023-04-29T00:43:41;75.80;;;41.30;;
11854;SDS011;5987;53.140;8.904;2023-04-29T00:46:45;78.53;;;42.23;;
11854;SDS011;5987;53.140;8.904;2023-04-29T00:49:49;82.70;;;41.47;;
11854;SDS011;5987;53.140;8.904;2023-04-29T00:52:53;71.80;;;40.10;;
11854;SDS011;5987;53.140;8.904;2023-04-29T00:55:58;74.40;;;41.57;;
11854;SDS011;5987;53.140;8.904;2023-04-29T00:59:04;71.67;;;38.80;;
11854;SDS011;5987;53.140;8.904;2023-04-29T01:02:09;70.80;;;40.07;;
11854;SDS011;5987;53.140;8.904;2023-04-29T01:05:13;74.03;;;37.43;;
11854;SDS011;5987;53.140;8.904;2023-04-29T01:08:20;65.03;;;37.60;;
11854;SDS011;5987;53.140;8.904;2023-04-29T01:11:38;70.17;;;39.43;;
11854;SDS011;5987;53.140;8.904;2023-04-29T01:15:09;65.13;;;37.90;;
11854;SDS011;5987;53.140;8.904;2023-04-29T01:18:25;66.07;;;37.80;;
11854;SDS011;5987;53.140;8.904;2023-04-29T01:21:44;72.27;;;40.07;;
11854;SDS011;5987;53.140;8.904;2023-04-29T01:24:51;65.67;;;36.17;;
11854;SDS011;5987;53.140;8.904;2023-04-29T01:27:56;70.77;;;38.40;;
11854;SDS011;5987;53.140;8.904;2023-04-29T01:31:17;62.57;;;35.73;;
11854;SDS011;5987;53.140;8.904;2023-04-29T01:34:29;63.60;;;37.97;;
11854;SDS011;5987;53.140;8.904;2023-04-29T01:37:46;60.07;;;34.10;;
11854;SDS011;5987;53.140;8.904;2023-04-29T01:41:00;63.13;;;34.63;;
11854;SDS011;5987;53.140;8.904;2023-04-29T01:44:16;62.60;;;33.53;;
11854;SDS011;5987;53.140;8.904;2023-04-29T01:47:26;53.60;;;33.07;;
11854;SDS011;5987;53.140;8.904;2023-04-29T01:50:31;54.90;;;33.70;;
11854;SDS011;5987;53.140;8.904;2023-04-29T01:53:35;55.53;;;33.00;;
11854;SDS011;5987;53.140;8.904;2023-04-29T01:56:42;59.23;;;32.23;;
11854;SDS011;5987;53.140;8.904;2023-04-29T01:59:46;56.40;;;32.07;;
11854;SDS011;5987;53.140;8.904;2023-04-29T02:02:50;57.67;;;33.23;;
11854;SDS011;5987;53.140;8.904;2023-04-29T02:05:55;54.77;;;31.13;;
11854;SDS011;5987;53.140;8.904;2023-04-29T02:08:59;51.13;;;29.83;;
11854;SDS011;5987;53.140;8.904;2023-04-29T02:12:04;52.97;;;31.43;;
11854;SDS011;5987;53.140;8.904;2023-04-29T02:15:08;52.97;;;30.97;;
11854;SDS011;5987;53.140;8.904;2023-04-29T02:18:12;49.10;;;30.70;;
11854;SDS011;5987;53.140;8.904;2023-04-29T02:21:16;51.83;;;31.03;;
11854;SDS011;5987;53.140;8.904;2023-04-29T02:24:20;52.97;;;30.33;;
11854;SDS011;5987;53.140;8.904;2023-04-29T02:27:25;48.60;;;28.70;;
11854;SDS011;5987;53.140;8.904;2023-04-29T02:30:29;50.93;;;31.00;;
11854;SDS011;5987;53.140;8.904;2023-04-29T02:33:33;50.23;;;30.43;;
11854;SDS011;5987;53.140;8.904;2023-04-29T02:36:36;51.50;;;29.50;;
11854;SDS011;5987;53.140;8.904;2023-04-29T02:39:40;45.70;;;29.67;;
11854;SDS011;5987;53.140;8.904;2023-04-29T02:42:46;52.50;;;30.67;;
11854;SDS011;5987;53.140;8.904;2023-04-29T02:45:49;50.17;;;30.13;;
11854;SDS011;5987;53.140;8.904;2023-04-29T02:48:54;43.87;;;28.20;;
11854;SDS011;5987;53.140;8.904;2023-04-29T02:51:57;41.27;;;27.23;;
11854;SDS011;5987;53.140;8.904;2023-04-29T02:55:01;44.33;;;28.30;;
11854;SDS011;5987;53.140;8.904;2023-04-29T02:58:07;50.40;;;28.97;;
11854;SDS011;5987;53.140;8.904;2023-04-29T03:01:10;47.57;;;28.30;;
11854;SDS011;5987;53.140;8.904;2023-04-29T03:04:14;47.00;;;27.77;;
11854;SDS011;5987;53.140;8.904;2023-04-29T03:07:18;42.83;;;27.33;;
11854;SDS011;5987;53.140;8.904;2023-04-29T03:10:22;44.67;;;26.17;;
11854;SDS011;5987;53.140;8.904;2023-04-29T03:13:27;44.07;;;27.30;;
11854;SDS011;5987;53.140;8.904;2023-04-29T03:16:31;48.17;;;28.70;;
11854;SDS011;5987;53.140;8.904;2023-04-29T03:19:35;48.67;;;27.90;;
11854;SDS011;5987;53.140;8.904;2023-04-29T03:22:39;44.67;;;27.30;;
11854;SDS011;5987;53.140;8.904;2023-04-29T03:25:43;44.80;;;28.83;;
11854;SDS011;5987;53.140;8.904;2023-04-29T03:28:48;47.37;;;27.50;;
11854;SDS011;5987;53.140;8.904;2023-04-29T03:31:52;43.27;;;27.90;;
11854;SDS011;5987;53.140;8.904;2023-04-29T03:34:57;44.60;;;26.57;;
11854;SDS011;5987;53.140;8.904;2023-04-29T03:38:00;46.43;;;26.57;;
11854;SDS011;5987;53.140;8.904;2023-04-29T03:41:04;41.47;;;25.17;;
11854;SDS011;5987;53.140;8.904;2023-04-29T03:44:09;41.23;;;25.07;;
11854;SDS011;5987;53.140;8.904;2023-04-29T03:47:13;46.67;;;26.07;;
11854;SDS011;5987;53.140;8.904;2023-04-29T03:50:17;41.30;;;24.43;;
11854;SDS011;5987;53.140;8.904;2023-04-29T03:53:20;49.27;;;26.50;;
11854;SDS011;5987;53.140;8.904;2023-04-29T03:56:25;42.07;;;25.97;;
11854;SDS011;5987;53.140;8.904;2023-04-29T03:59:30;44.80;;;25.17;;
11854;SDS011;5987;53.140;8.904;2023-04-29T04:02:34;46.60;;;25.73;;
11854;SDS011;5987;53.140;8.904;2023-04-29T04:05:38;48.93;;;25.40;;
11854;SDS011;5987;53.140;8.904;2023-04-29T04:08:41;44.57;;;26.13;;
11854;SDS011;5987;53.140;8.904;2023-04-29T04:11:45;43.60;;;24.40;;
11854;SDS011;5987;53.140;8.904;2023-04-29T04:14:50;44.27;;;25.53;;
11854;SDS011;5987;53.140;8.904;2023-04-29T04:17:54;46.53;;;26.80;;
11854;SDS011;5987;53.140;8.904;2023-04-29T04:21:03;43.53;;;25.87;;
11854;SDS011;5987;53.140;8.904;2023-04-29T04:24:08;49.70;;;27.53;;
11854;SDS011;5987;53.140;8.904;2023-04-29T04:27:11;45.97;;;27.10;;
11854;SDS011;5987;53.140;8.904;2023-04-29T04:30:16;47.47;;;28.20;;
11854;SDS011;5987;53.140;8.904;2023-04-29T04:33:20;51.03;;;28.93;;
11854;SDS011;5987;53.140;8.904;2023-04-29T04:36:24;43.30;;;26.63;;
11854;SDS011;5987;53.140;8.904;2023-04-29T04:39:27;50.70;;;27.43;;
11854;SDS011;5987;53.140;8.904;2023-04-29T04:42:31;48.00;;;27.93;;
11854;SDS011;5987;53.140;8.904;2023-04-29T04:45:36;43.73;;;26.07;;
11854;SDS011;5987;53.140;8.904;2023-04-29T04:48:40;49.50;;;27.87;;
11854;SDS011;5987;53.140;8.904;2023-04-29T04:51:44;46.63;;;26.67;;
11854;SDS011;5987;53.140;8.904;2023-04-29T04:54:48;53.17;;;29.97;;
11854;SDS011;5987;53.140;8.904;2023-04-29T04:57:52;51.57;;;28.70;;
11854;SDS011;5987;53.140;8.904;2023-04-29T05:00:57;55.87;;;28.57;;
11854;SDS011;5987;53.140;8.904;2023-04-29T05:04:00;49.83;;;28.73;;
11854;SDS011;5987;53.140;8.904;2023-04-29T05:07:05;51.10;;;29.73;;
11854;SDS011;5987;53.140;8.904;2023-04-29T05:10:08;48.90;;;28.03;;
11854;SDS011;5987;53.140;8.904;2023-04-29T05:13:12;48.80;;;29.50;;
11854;SDS011;5987;53.140;8.904;2023-04-29T05:16:18;47.40;;;29.30;;
11854;SDS011;5987;53.140;8.904;2023-04-29T05:19:21;51.33;;;30.83;;
11854;SDS011;5987;53.140;8.904;2023-04-29T05:22:25;53.60;;;30.30;;
11854;SDS011;5987;53.140;8.904;2023-04-29T05:25:29;52.37;;;31.87;;
11854;SDS011;5987;53.140;8.904;2023-04-29T05:28:32;51.50;;;30.83;;
11854;SDS011;5987;53.140;8.904;2023-04-29T05:31:38;56.97;;;31.87;;
11854;SDS011;5987;53.140;8.904;2023-04-29T05:34:42;54.10;;;31.27;;
11854;SDS011;5987;53.140;8.904;2023-04-29T05:37:45;49.93;;;30.20;;
11854;SDS011;5987;53.140;8.904;2023-04-29T05:40:49;55.20;;;30.80;;
11854;SDS011;5987;53.140;8.904;2023-04-29T05:43:53;54.00;;;30.67;;
11854;SDS011;5987;53.140;8.904;2023-04-29T05:46:58;47.50;;;29.83;;
11854;SDS011;5987;53.140;8.904;2023-04-29T05:50:02;48.27;;;31.07;;
11854;SDS011;5987;53.140;8.904;2023-04-29T05:53:07;48.70;;;29.70;;
11854;SDS011;5987;53.140;8.904;2023-04-29T05:56:11;51.90;;;29.73;;
11854;SDS011;5987;53.140;8.904;2023-04-29T05:59:15;52.90;;;31.07;;
11854;SDS011;5987;53.140;8.904;2023-04-29T06:02:20;48.80;;;28.43;;
11854;SDS011;5987;53.140;8.904;2023-04-29T06:05:24;47.33;;;29.00;;
11854;SDS011;5987;53.140;8.904;2023-04-29T06:08:29;43.10;;;26.63;;
11854;SDS011;5987;53.140;8.904;2023-04-29T06:11:33;43.33;;;27.40;;
11854;SDS011;5987;53.140;8.904;2023-04-29T06:14:36;46.17;;;27.27;;
11854;SDS011;5987;53.140;8.904;2023-04-29T06:17:41;39.80;;;24.93;;
11854;SDS011;5987;53.140;8.904;2023-04-29T06:20:45;45.63;;;25.93;;
11854;SDS011;5987;53.140;8.904;2023-04-29T06:23:49;37.03;;;24.87;;
11854;SDS011;5987;53.140;8.904;2023-04-29T06:26:53;41.00;;;26.77;;
11854;SDS011;5987;53.140;8.904;2023-04-29T06:29:57;37.20;;;23.90;;
11854;SDS011;5987;53.140;8.904;2023-04-29T06:33:02;36.97;;;24.13;;
11854;SDS011;5987;53.140;8.904;2023-04-29T06:36:06;38.93;;;24.90;;
11854;SDS011;5987;53.140;8.904;2023-04-29T06:39:10;37.90;;;24.47;;
11854;SDS011;5987;53.140;8.904;2023-04-29T06:42:14;36.70;;;24.03;;
11854;SDS011;5987;53.140;8.904;2023-04-29T06:45:17;38.93;;;23.93;;
11854;SDS011;5987;53.140;8.904;2023-04-29T06:48:22;42.37;;;24.30;;
11854;SDS011;5987;53.140;8.904;2023-04-29T06:51:28;40.37;;;23.27;;
11854;SDS011;5987;53.140;8.904;2023-04-29T06:54:32;38.50;;;23.83;;
11854;SDS011;5987;53.140;8.904;2023-04-29T06:57:36;35.70;;;22.80;;
11854;SDS011;5987;53.140;8.904;2023-04-29T07:00:42;33.47;;;22.33;;
11854;SDS011;5987;53.140;8.904;2023-04-29T07:03:49;33.83;;;21.43;;
11854;SDS011;5987;53.140;8.904;2023-04-29T07:06:54;35.13;;;22.90;;
11854;SDS011;5987;53.140;8.904;2023-04-29T07:09:59;32.97;;;20.37;;
11854;SDS011;5987;53.140;8.904;2023-04-29T07:13:03;32.40;;;20.60;;
11854;SDS011;5987;53.140;8.904;2023-04-29T07:16:13;35.30;;;20.90;;
11854;SDS011;5987;53.140;8.904;2023-04-29T07:19:20;29.43;;;19.30;;
11854;SDS011;5987;53.140;8.904;2023-04-29T07:22:24;29.87;;;19.67;;
11854;SDS011;5987;53.140;8.904;2023-04-29T07:25:27;32.97;;;19.37;;
11854;SDS011;5987;53.140;8.904;2023-04-29T07:28:31;27.07;;;16.77;;
11854;SDS011;5987;53.140;8.904;2023-04-29T07:31:35;25.73;;;16.03;;
11854;SDS011;5987;53.140;8.904;2023-04-29T07:34:40;23.50;;;16.47;;
11854;SDS011;5987;53.140;8.904;2023-04-29T07:37:44;23.93;;;15.30;;
11854;SDS011;5987;53.140;8.904;2023-04-29T07:40:48;22.73;;;15.40;;
11854;SDS011;5987;53.140;8.904;2023-04-29T07:43:52;25.07;;;14.53;;
11854;SDS011;5987;53.140;8.904;2023-04-29T07:46:56;19.83;;;13.40;;
11854;SDS011;5987;53.140;8.904;2023-04-29T07:50:01;20.13;;;12.97;;
11854;SDS011;5987;53.140;8.904;2023-04-29T07:53:05;17.80;;;10.60;;
11854;SDS011;5987;53.140;8.904;2023-04-29T07:56:09;17.00;;;11.33;;
11854;SDS011;5987;53.140;8.904;2023-04-29T07:59:13;18.60;;;10.97;;
11854;SDS011;5987;53.140;8.904;2023-04-29T08:02:17;16.73;;;10.73;;
11854;SDS011;5987;53.140;8.904;2023-04-29T08:05:22;15.80;;;9.97;;
11854;SDS011;5987;53.140;8.904;2023-04-29T08:08:27;17.33;;;9.97;;
11854;SDS011;5987;53.140;8.904;2023-04-29T08:11:32;16.57;;;10.60;;
11854;SDS011;5987;53.140;8.904;2023-04-29T08:14:36;18.30;;;10.17;;
11854;SDS011;5987;53.140;8.904;2023-04-29T08:17:40;15.77;;;8.53;;
11854;SDS011;5987;53.140;8.904;2023-04-29T08:20:47;14.93;;;8.77;;
11854;SDS011;5987;53.140;8.904;2023-04-29T08:23:51;13.87;;;8.87;;
11854;SDS011;5987;53.140;8.904;2023-04-29T08:26:56;15.17;;;8.53;;
11854;SDS011;5987;53.140;8.904;2023-04-29T08:30:00;14.97;;;8.73;;
11854;SDS011;5987;53.140;8.904;2023-04-29T08:33:04;10.07;;;7.73;;
11854;SDS011;5987;53.140;8.904;2023-04-29T08:36:09;15.53;;;8.00;;
11854;SDS011;5987;53.140;8.904;2023-04-29T08:39:13;13.93;;;7.97;;
11854;SDS011;5987;53.140;8.904;2023-04-29T08:42:17;11.17;;;7.73;;
11854;SDS011;5987;53.140;8.904;2023-04-29T08:45:34;11.77;;;8.07;;
11854;SDS011;5987;53.140;8.904;2023-04-29T08:48:40;11.40;;;7.60;;
11854;SDS011;5987;53.140;8.904;2023-04-29T08:51:48;11.30;;;7.43;;
11854;SDS011;5987;53.140;8.904;2023-04-29T08:54:53;10.73;;;7.57;;
11854;SDS011;5987;53.140;8.904;2023-04-29T08:57:58;12.13;;;6.93;;
11854;SDS011;5987;53.140;8.904;2023-04-29T09:01:05;13.47;;;7.47;;
11854;SDS011;5987;53.140;8.904;2023-04-29T09:04:11;12.03;;;7.27;;
11854;SDS011;5987;53.140;8.904;2023-04-29T09:07:32;13.03;;;7.70;;
11854;SDS011;5987;53.140;8.904;2023-04-29T09:10:38;11.37;;;7.73;;
11854;SDS011;5987;53.140;8.904;2023-04-29T09:13:44;9.90;;;7.37;;
11854;SDS011;5987;53.140;8.904;2023-04-29T09:16:48;11.03;;;7.83;;
11854;SDS011;5987;53.140;8.904;2023-04-29T09:19:52;15.77;;;7.80;;
11854;SDS011;5987;53.140;8.904;2023-04-29T09:23:00;11.00;;;6.27;;
11854;SDS011;5987;53.140;8.904;2023-04-29T09:26:05;11.17;;;7.33;;
11854;SDS011;5987;53.140;8.904;2023-04-29T09:29:09;10.33;;;6.63;;
11854;SDS011;5987;53.140;8.904;2023-04-29T09:32:19;11.00;;;8.00;;
11854;SDS011;5987;53.140;8.904;2023-04-29T09:35:23;9.23;;;6.90;;
11854;SDS011;5987;53.140;8.904;2023-04-29T09:38:30;10.83;;;7.30;;
11854;SDS011;5987;53.140;8.904;2023-04-29T09:41:34;10.43;;;7.07;;
11854;SDS011;5987;53.140;8.904;2023-04-29T09:44:40;9.37;;;6.67;;
11854;SDS011;5987;53.140;8.904;2023-04-29T09:47:44;12.80;;;8.43;;
11854;SDS011;5987;53.140;8.904;2023-04-29T09:50:58;11.17;;;7.90;;
11854;SDS011;5987;53.140;8.904;2023-04-29T09:54:05;9.93;;;7.87;;
11854;SDS011;5987;53.140;8.904;2023-04-29T09:57:23;13.73;;;7.80;;
11854;SDS011;5987;53.140;8.904;2023-04-29T10:00:45;11.10;;;7.60;;
11854;SDS011;5987;53.140;8.904;2023-04-29T10:03:49;8.53;;;6.80;;
11854;SDS011;5987;53.140;8.904;2023-04-29T10:06:58;13.47;;;7.90;;
11854;SDS011;5987;53.140;8.904;2023-04-29T10:10:06;13.57;;;7.30;;
11854;SDS011;5987;53.140;8.904;2023-04-29T10:13:12;11.50;;;7.50;;
11854;SDS011;5987;53.140;8.904;2023-04-29T10:16:19;11.37;;;7.00;;
11854;SDS011;5987;53.140;8.904;2023-04-29T10:19:32;12.37;;;6.83;;
11854;SDS011;5987;53.140;8.904;2023-04-29T10:22:44;10.87;;;7.07;;
11854;SDS011;5987;53.140;8.904;2023-04-29T10:25:51;10.33;;;6.60;;
11854;SDS011;5987;53.140;8.904;2023-04-29T10:28:57;11.33;;;6.87;;
11854;SDS011;5987;53.140;8.904;2023-04-29T10:32:02;10.13;;;7.30;;
11854;SDS011;5987;53.140;8.904;2023-04-29T10:35:11;7.30;;;5.93;;
11854;SDS011;5987;53.140;8.904;2023-04-29T10:38:19;12.93;;;6.50;;
11854;SDS011;5987;53.140;8.904;2023-04-29T10:41:33;10.43;;;6.57;;
11854;SDS011;5987;53.140;8.904;2023-04-29T10:48:22;9.67;;;6.20;;
11854;SDS011;5987;53.140;8.904;2023-04-29T10:51:27;10.60;;;6.83;;
11854;SDS011;5987;53.140;8.904;2023-04-29T10:54:33;8.20;;;6.20;;
11854;SDS011;5987;53.140;8.904;2023-04-29T10:57:38;9.53;;;6.67;;
11854;SDS011;5987;53.140;8.904;2023-04-29T11:00:43;12.20;;;6.87;;
11854;SDS011;5987;53.140;8.904;2023-04-29T11:03:50;10.63;;;6.40;;
11854;SDS011;5987;53.140;8.904;2023-04-29T11:06:59;10.37;;;6.33;;
11854;SDS011;5987;53.140;8.904;2023-04-29T11:10:03;7.57;;;4.93;;
11854;SDS011;5987;53.140;8.904;2023-04-29T11:13:22;5.67;;;4.27;;
11854;SDS011;5987;53.140;8.904;2023-04-29T11:16:27;9.17;;;5.50;;
11854;SDS011;5987;53.140;8.904;2023-04-29T11:19:31;14.40;;;6.37;;
11854;SDS011;5987;53.140;8.904;2023-04-29T11:22:37;8.20;;;5.20;;
11854;SDS011;5987;53.140;8.904;2023-04-29T11:25:41;10.73;;;4.90;;
11854;SDS011;5987;53.140;8.904;2023-04-29T11:28:46;6.90;;;5.20;;
11854;SDS011;5987;53.140;8.904;2023-04-29T11:31:57;5.77;;;4.70;;
11854;SDS011;5987;53.140;8.904;2023-04-29T11:35:10;7.47;;;5.33;;
11854;SDS011;5987;53.140;8.904;2023-04-29T11:38:16;9.63;;;5.03;;
11854;SDS011;5987;53.140;8.904;2023-04-29T11:41:19;7.87;;;4.77;;
11854;SDS011;5987;53.140;8.904;2023-04-29T11:44:26;6.27;;;4.33;;
11854;SDS011;5987;53.140;8.904;2023-04-29T11:47:29;10.20;;;5.20;;
11854;SDS011;5987;53.140;8.904;2023-04-29T11:50:33;7.07;;;5.03;;
11854;SDS011;5987;53.140;8.904;2023-04-29T11:53:37;8.10;;;4.70;;
11854;SDS011;5987;53.140;8.904;2023-04-29T11:56:40;8.33;;;4.50;;
11854;SDS011;5987;53.140;8.904;2023-04-29T11:59:46;8.33;;;4.23;;
11854;SDS011;5987;53.140;8.904;2023-04-29T12:02:50;4.07;;;3.63;;
11854;SDS011;5987;53.140;8.904;2023-04-29T12:05:54;6.57;;;4.33;;
11854;SDS011;5987;53.140;8.904;2023-04-29T12:08:59;7.27;;;3.93;;
11854;SDS011;5987;53.140;8.904;2023-04-29T12:12:04;6.97;;;4.00;;
11854;SDS011;5987;53.140;8.904;2023-04-29T12:15:10;7.77;;;4.13;;
11854;SDS011;5987;53.140;8.904;2023-04-29T12:18:15;5.80;;;3.53;;
11854;SDS011;5987;53.140;8.904;2023-04-29T12:21:20;8.30;;;3.90;;
11854;SDS011;5987;53.140;8.904;2023-04-29T12:24:24;9.80;;;4.57;;
11854;SDS011;5987;53.140;8.904;2023-04-29T12:27:28;6.03;;;3.93;;
11854;SDS011;5987;53.140;8.904;2023-04-29T12:30:34;5.47;;;4.30;;
11854;SDS011;5987;53.140;8.904;2023-04-29T12:33:41;10.10;;;4.37;;
11854;SDS011;5987;53.140;8.904;2023-04-29T12:36:46;8.87;;;4.33;;
11854;SDS011;5987;53.140;8.904;2023-04-29T12:39:49;9.13;;;5.07;;
11854;SDS011;5987;53.140;8.904;2023-04-29T12:42:53;6.40;;;4.10;;
11854;SDS011;5987;53.140;8.904;2023-04-29T12:46:00;7.17;;;4.30;;
11854;SDS011;5987;53.140;8.904;2023-04-29T12:49:06;7.83;;;4.63;;
11854;SDS011;5987;53.140;8.904;2023-04-29T12:52:10;6.17;;;4.00;;
11854;SDS011;5987;53.140;8.904;2023-04-29T12:55:14;9.47;;;4.43;;
11854;SDS011;5987;53.140;8.904;2023-04-29T12:58:18;5.50;;;3.93;;
11854;SDS011;5987;53.140;8.904;2023-04-29T13:01:23;7.73;;;4.77;;
11854;SDS011;5987;53.140;8.904;2023-04-29T13:04:27;7.83;;;4.23;;
11854;SDS011;5987;53.140;8.904;2023-04-29T13:07:31;6.43;;;4.10;;
11854;SDS011;5987;53.140;8.904;2023-04-29T13:10:34;5.00;;;4.07;;
11854;SDS011;5987;53.140;8.904;2023-04-29T13:13:38;5.13;;;3.43;;
11854;SDS011;5987;53.140;8.904;2023-04-29T13:16:43;5.90;;;3.47;;
11854;SDS011;5987;53.140;8.904;2023-04-29T13:19:48;5.43;;;2.77;;
11854;SDS011;5987;53.140;8.904;2023-04-29T13:22:53;5.57;;;2.80;;
11854;SDS011;5987;53.140;8.904;2023-04-29T13:25:58;3.93;;;2.70;;
11854;SDS011;5987;53.140;8.904;2023-04-29T13:29:02;7.17;;;3.17;;
11854;SDS011;5987;53.140;8.904;2023-04-29T13:32:07;3.57;;;1.90;;
11854;SDS011;5987;53.140;8.904;2023-04-29T13:35:11;4.63;;;2.03;;
11854;SDS011;5987;53.140;8.904;2023-04-29T13:38:14;4.53;;;2.07;;
11854;SDS011;5987;53.140;8.904;2023-04-29T13:41:19;3.10;;;1.80;;
11854;SDS011;5987;53.140;8.904;2023-04-29T13:44:23;6.07;;;2.10;;
11854;SDS011;5987;53.140;8.904;2023-04-29T13:47:47;3.10;;;1.90;;
11854;SDS011;5987;53.140;8.904;2023-04-29T13:50:54;3.43;;;1.67;;
11854;SDS011;5987;53.140;8.904;2023-04-29T13:54:00;6.30;;;2.23;;
11854;SDS011;5987;53.140;8.904;2023-04-29T13:57:07;4.47;;;2.20;;
11854;SDS011;5987;53.140;8.904;2023-04-29T14:00:14;3.73;;;1.73;;
11854;SDS011;5987;53.140;8.904;2023-04-29T14:03:41;4.50;;;1.37;;
11854;SDS011;5987;53.140;8.904;2023-04-29T14:06:46;4.33;;;2.30;;
11854;SDS011;5987;53.140;8.904;2023-04-29T14:09:50;2.87;;;1.27;;
11854;SDS011;5987;53.140;8.904;2023-04-29T14:12:53;1.20;;;0.90;;
11854;SDS011;5987;53.140;8.904;2023-04-29T14:15:57;3.77;;;1.30;;
11854;SDS011;5987;53.140;8.904;2023-04-29T14:19:05;4.80;;;1.83;;
11854;SDS011;5987;53.140;8.904;2023-04-29T14:22:09;4.40;;;1.40;;
11854;SDS011;5987;53.140;8.904;2023-04-29T14:25:13;3.28;;;1.38;;
11854;SDS011;5987;53.140;8.904;2023-04-29T14:28:17;1.67;;;1.13;;
11854;SDS011;5987;53.140;8.904;2023-04-29T14:31:20;3.37;;;1.57;;
11854;SDS011;5987;53.140;8.904;2023-04-29T14:34:25;4.90;;;1.47;;
11854;SDS011;5987;53.140;8.904;2023-04-29T14:37:29;7.30;;;1.80;;
11854;SDS011;5987;53.140;8.904;2023-04-29T14:40:33;1.83;;;1.37;;
11854;SDS011;5987;53.140;8.904;2023-04-29T14:43:37;2.63;;;0.93;;
11854;SDS011;5987;53.140;8.904;2023-04-29T14:46:42;3.60;;;1.67;;
11854;SDS011;5987;53.140;8.904;2023-04-29T14:49:47;3.50;;;1.40;;
11854;SDS011;5987;53.140;8.904;2023-04-29T14:52:52;3.17;;;1.87;;
11854;SDS011;5987;53.140;8.904;2023-04-29T14:55:55;4.23;;;2.10;;
11854;SDS011;5987;53.140;8.904;2023-04-29T14:58:59;4.70;;;2.63;;
11854;SDS011;5987;53.140;8.904;2023-04-29T15:02:02;4.90;;;3.10;;
11854;SDS011;5987;53.140;8.904;2023-04-29T15:05:08;4.50;;;2.30;;
11854;SDS011;5987;53.140;8.904;2023-04-29T15:08:12;5.97;;;2.63;;
11854;SDS011;5987;53.140;8.904;2023-04-29T15:11:15;4.27;;;2.80;;
11854;SDS011;5987;53.140;8.904;2023-04-29T15:14:19;4.10;;;2.70;;
11854;SDS011;5987;53.140;8.904;2023-04-29T15:17:22;3.87;;;2.60;;
11854;SDS011;5987;53.140;8.904;2023-04-29T15:20:28;3.80;;;2.20;;
11854;SDS011;5987;53.140;8.904;2023-04-29T15:23:33;3.77;;;2.50;;
11854;SDS011;5987;53.140;8.904;2023-04-29T15:26:36;3.33;;;2.50;;
11854;SDS011;5987;53.140;8.904;2023-04-29T15:29:40;3.53;;;2.43;;
11854;SDS011;5987;53.140;8.904;2023-04-29T15:32:44;4.00;;;2.10;;
11854;SDS011;5987;53.140;8.904;2023-04-29T15:35:49;2.87;;;1.90;;
11854;SDS011;5987;53.140;8.904;2023-04-29T15:38:53;5.33;;;1.97;;
11854;SDS011;5987;53.140;8.904;2023-04-29T15:41:57;3.83;;;1.90;;
11854;SDS011;5987;53.140;8.904;2023-04-29T15:45:01;4.10;;;2.03;;
11854;SDS011;5987;53.140;8.904;2023-04-29T15:48:05;4.93;;;1.60;;
11854;SDS011;5987;53.140;8.904;2023-04-29T15:51:10;4.50;;;2.27;;
11854;SDS011;5987;53.140;8.904;2023-04-29T15:54:15;3.70;;;2.17;;
11854;SDS011;5987;53.140;8.904;2023-04-29T15:57:19;3.67;;;2.47;;
11854;SDS011;5987;53.140;8.904;2023-04-29T16:00:23;3.00;;;2.30;;
11854;SDS011;5987;53.140;8.904;2023-04-29T16:03:26;3.93;;;2.53;;
11854;SDS011;5987;53.140;8.904;2023-04-29T16:06:31;2.53;;;2.27;;
11854;SDS011;5987;53.140;8.904;2023-04-29T16:09:35;5.03;;;2.30;;
11854;SDS011;5987;53.140;8.904;2023-04-29T16:12:39;3.77;;;2.17;;
11854;SDS011;5987;53.140;8.904;2023-04-29T16:15:43;2.37;;;2.17;;
11854;SDS011;5987;53.140;8.904;2023-04-29T16:18:47;2.20;;;2.00;;
11854;SDS011;5987;53.140;8.904;2023-04-29T16:21:52;3.57;;;2.23;;
11854;SDS011;5987;53.140;8.904;2023-04-29T16:24:56;1.80;;;1.70;;
11854;SDS011;5987;53.140;8.904;2023-04-29T16:28:00;4.37;;;1.80;;
11854;SDS011;5987;53.140;8.904;2023-04-29T16:31:04;2.30;;;1.30;;
11854;SDS011;5987;53.140;8.904;2023-04-29T16:34:08;3.73;;;1.67;;
11854;SDS011;5987;53.140;8.904;2023-04-29T16:37:13;1.97;;;1.53;;
11854;SDS011;5987;53.140;8.904;2023-04-29T16:40:17;3.17;;;1.63;;
11854;SDS011;5987;53.140;8.904;2023-04-29T16:43:21;6.37;;;2.20;;
11854;SDS011;5987;53.140;8.904;2023-04-29T16:46:25;4.13;;;1.93;;
11854;SDS011;5987;53.140;8.904;2023-04-29T16:49:29;4.60;;;2.67;;
11854;SDS011;5987;53.140;8.904;2023-04-29T16:52:34;3.30;;;2.57;;
11854;SDS011;5987;53.140;8.904;2023-04-29T16:55:38;3.33;;;2.20;;
11854;SDS011;5987;53.140;8.904;2023-04-29T16:58:42;3.93;;;2.30;;
11854;SDS011;5987;53.140;8.904;2023-04-29T17:01:46;4.90;;;2.00;;
11854;SDS011;5987;53.140;8.904;2023-04-29T17:04:50;3.03;;;1.73;;
11854;SDS011;5987;53.140;8.904;2023-04-29T17:07:55;3.60;;;1.90;;
11854;SDS011;5987;53.140;8.904;2023-04-29T17:10:59;4.33;;;2.50;;
11854;SDS011;5987;53.140;8.904;2023-04-29T17:14:06;4.77;;;2.67;;
11854;SDS011;5987;53.140;8.904;2023-04-29T17:17:10;3.83;;;2.20;;
11854;SDS011;5987;53.140;8.904;2023-04-29T17:20:14;3.53;;;2.17;;
11854;SDS011;5987;53.140;8.904;2023-04-29T17:23:19;3.20;;;2.13;;
11854;SDS011;5987;53.140;8.904;2023-04-29T17:26:23;2.70;;;2.50;;
11854;SDS011;5987;53.140;8.904;2023-04-29T17:29:26;3.37;;;2.27;;
11854;SDS011;5987;53.140;8.904;2023-04-29T17:32:30;4.17;;;2.10;;
11854;SDS011;5987;53.140;8.904;2023-04-29T17:35:39;4.20;;;2.70;;
11854;SDS011;5987;53.140;8.904;2023-04-29T17:38:45;3.00;;;2.20;;
11854;SDS011;5987;53.140;8.904;2023-04-29T17:41:48;5.67;;;2.77;;
11854;SDS011;5987;53.140;8.904;2023-04-29T17:44:52;2.47;;;2.07;;
11854;SDS011;5987;53.140;8.904;2023-04-29T17:47:56;5.53;;;2.50;;
11854;SDS011;5987;53.140;8.904;2023-04-29T17:50:59;4.50;;;2.60;;
11854;SDS011;5987;53.140;8.904;2023-04-29T17:54:05;4.43;;;2.77;;
11854;SDS011;5987;53.140;8.904;2023-04-29T17:57:11;5.57;;;2.43;;
11854;SDS011;5987;53.140;8.904;2023-04-29T18:00:14;6.87;;;2.47;;
11854;SDS011;5987;53.140;8.904;2023-04-29T18:03:18;4.77;;;2.87;;
11854;SDS011;5987;53.140;8.904;2023-04-29T18:06:24;5.80;;;2.73;;
11854;SDS011;5987;53.140;8.904;2023-04-29T18:09:30;7.07;;;2.50;;
11854;SDS011;5987;53.140;8.904;2023-04-29T18:12:35;5.43;;;3.37;;
11854;SDS011;5987;53.140;8.904;2023-04-29T18:15:39;7.03;;;2.87;;
11854;SDS011;5987;53.140;8.904;2023-04-29T18:18:43;6.23;;;2.50;;
11854;SDS011;5987;53.140;8.904;2023-04-29T18:21:47;3.80;;;2.30;;
11854;SDS011;5987;53.140;8.904;2023-04-29T18:24:52;6.77;;;2.70;;
11854;SDS011;5987;53.140;8.904;2023-04-29T18:28:00;5.90;;;2.20;;
11854;SDS011;5987;53.140;8.904;2023-04-29T18:31:24;6.63;;;2.13;;
11854;SDS011;5987;53.140;8.904;2023-04-29T18:34:28;10.53;;;2.67;;
11854;SDS011;5987;53.140;8.904;2023-04-29T18:37:32;9.60;;;2.80;;
11854;SDS011;5987;53.140;8.904;2023-04-29T18:40:37;7.87;;;2.33;;